createdAt,value
2019-05-02T00:01:42.877Z,98030.52
2019-05-02T00:04:20.116Z,98026.78
2019-05-02T00:06:48.374Z,98032.25
2019-05-02T00:09:19.721Z,98027.50
2019-05-02T00:11:58.669Z,98025.94
2019-05-02T00:14:23.540Z,98015.05
2019-05-02T00:16:54.166Z,98014.09
2019-05-02T00:19:24.771Z,98022.93
2019-05-02T00:21:55.418Z,98012.75
2019-05-02T00:24:27.031Z,98010.76
2019-05-02T00:27:01.315Z,98004.81
2019-05-02T00:29:30.084Z,98018.52
2019-05-02T00:32:00.804Z,98012.11
2019-05-02T00:34:31.528Z,98008.94
2019-05-02T00:37:03.796Z,98005.44
2019-05-02T00:39:34.379Z,98001.48
2019-05-02T00:42:12.324Z,98010.58
2019-05-02T00:44:37.518Z,98005.09
2019-05-02T00:47:10.907Z,97992.30
2019-05-02T00:49:41.940Z,97994.73
2019-05-02T00:52:12.646Z,97997.93
2019-05-02T00:54:43.281Z,97999.34
2019-05-02T00:57:14.997Z,97995.36
2019-05-02T00:59:46.110Z,97996.98
2019-05-02T01:02:21.359Z,98002.33
2019-05-02T01:04:52.052Z,97995.44
2019-05-02T01:07:25.870Z,97990.63
2019-05-02T01:09:54.990Z,97996.55
2019-05-02T01:12:26.819Z,97993.55
2019-05-02T01:14:57.620Z,97994.88
2019-05-02T01:17:30.989Z,97987.11
2019-05-02T01:20:00.848Z,97989.78
2019-05-02T01:22:33.122Z,97991.02
2019-05-02T01:25:05.287Z,97984.52
2019-05-02T01:27:41.185Z,97982.50
2019-05-02T01:30:27.371Z,97984.64
2019-05-02T01:33:07.727Z,97978.96
2019-05-02T01:35:40.271Z,97972.87
2019-05-02T01:38:31.805Z,97975.95
2019-05-02T01:41:02.734Z,97970.18
2019-05-02T01:43:33.567Z,97968.81
2019-05-02T01:46:04.322Z,97974.75
2019-05-02T01:48:34.884Z,97979.91
2019-05-02T01:51:10.104Z,97976.30
2019-05-02T01:53:37.861Z,97981.50
2019-05-02T01:56:08.563Z,97985.35
2019-05-02T01:58:39.502Z,97980.70
2019-05-02T02:01:16.331Z,97981.81
2019-05-02T02:03:46.834Z,97986.65
2019-05-02T02:06:17.723Z,97989.53
2019-05-02T02:08:48.421Z,97990.00
2019-05-02T02:11:21.825Z,97993.71
2019-05-02T02:13:52.482Z,97995.41
2019-05-02T02:16:23.128Z,97996.84
2019-05-02T02:19:10.279Z,97997.64
2019-05-02T02:21:43.121Z,97990.46
2019-05-02T02:24:15.427Z,97993.12
2019-05-02T02:26:48.259Z,97987.97
2019-05-02T02:29:18.320Z,97991.75
2019-05-02T02:31:48.959Z,97986.70
2019-05-02T02:34:28.899Z,97993.98
2019-05-02T02:36:54.249Z,97992.05
2019-05-02T02:39:24.861Z,97997.09
2019-05-02T02:41:55.591Z,97996.89
2019-05-02T02:44:33.636Z,97999.68
2019-05-02T02:47:00.170Z,98001.63
2019-05-02T02:49:30.755Z,97996.14
2019-05-02T02:52:05.324Z,97996.31
2019-05-02T02:54:36.715Z,97998.98
2019-05-02T02:57:06.446Z,98000.20
2019-05-02T02:59:37.115Z,97999.53
2019-05-02T03:02:10.045Z,98010.02
2019-05-02T03:04:44.062Z,98005.56
2019-05-02T03:07:24.503Z,98011.41
2019-05-02T03:09:46.137Z,98015.58
2019-05-02T03:12:20.997Z,98008.81
2019-05-02T03:14:59.290Z,98008.53
2019-05-02T03:17:29.866Z,98010.23
2019-05-02T03:20:03.463Z,98019.05
2019-05-02T03:22:34.762Z,98021.64
2019-05-02T03:25:07.013Z,98012.25
2019-05-02T03:27:40.251Z,98017.81
2019-05-02T03:30:29.763Z,98018.52
2019-05-02T03:33:03.418Z,98014.92
2019-05-02T03:35:18.654Z,98021.64
2019-05-02T03:37:51.460Z,98019.72
2019-05-02T03:40:22.186Z,98024.84
2019-05-02T03:42:52.840Z,98032.17
2019-05-02T03:45:23.645Z,98035.83
2019-05-02T03:47:54.350Z,98037.21
2019-05-02T03:50:32.427Z,98039.97
2019-05-02T03:52:57.890Z,98042.40
2019-05-02T03:55:30.719Z,98050.31
2019-05-02T03:58:12.830Z,98057.55
2019-05-02T04:00:34.256Z,98057.55
2019-05-02T04:03:05.055Z,98062.12
2019-05-02T04:05:40.367Z,98067.78
2019-05-02T04:08:19.934Z,98067.94
2019-05-02T04:10:52.939Z,98067.46
2019-05-02T04:13:22.434Z,98069.78
2019-05-02T04:15:53.325Z,98071.28
2019-05-02T04:18:25.152Z,98073.19
2019-05-02T04:20:55.786Z,98072.22
2019-05-02T04:23:29.876Z,98070.27
2019-05-02T04:26:06.698Z,98081.42
2019-05-02T04:28:35.061Z,98084.30
2019-05-02T04:31:05.743Z,98090.63
2019-05-02T04:33:36.692Z,98075.17
2019-05-02T04:36:14.754Z,98080.41
2019-05-02T04:38:47.069Z,98080.30
2019-05-02T04:41:18.795Z,98083.80
2019-05-02T04:43:54.539Z,98086.78
2019-05-02T04:46:22.289Z,98096.95
2019-05-02T04:48:52.682Z,98097.28
2019-05-02T04:51:22.002Z,98097.61
2019-05-02T04:53:52.625Z,98093.78
2019-05-02T04:56:23.199Z,98105.10
2019-05-02T04:58:53.798Z,98096.73
2019-05-02T05:01:24.395Z,98098.69
2019-05-02T05:03:58.270Z,98106.03
2019-05-02T05:06:27.708Z,98106.67
2019-05-02T05:08:58.642Z,98104.52
2019-05-02T05:11:29.394Z,98109.33
2019-05-02T05:14:00.379Z,98120.03
2019-05-02T05:16:31.104Z,98115.73
2019-05-02T05:19:01.840Z,98125.66
2019-05-02T05:21:32.608Z,98122.30
2019-05-02T05:24:04.972Z,98119.55
2019-05-02T05:26:39.144Z,98126.86
2019-05-02T05:29:14.010Z,98131.16
2019-05-02T05:31:41.870Z,98140.06
2019-05-02T05:34:12.797Z,98143.02
2019-05-02T05:36:43.444Z,98141.89
2019-05-02T05:39:14.170Z,98145.53
2019-05-02T05:41:49.607Z,98154.36
2019-05-02T05:44:18.265Z,98150.07
2019-05-02T05:46:49.491Z,98154.23
2019-05-02T05:49:21.770Z,98159.15
2019-05-02T05:51:54.291Z,98157.06
2019-05-02T05:54:24.890Z,98166.13
2019-05-02T05:56:57.268Z,98161.38
2019-05-02T05:59:32.088Z,98177.12
2019-05-02T06:02:05.434Z,98177.83
2019-05-02T06:04:33.414Z,98176.52
2019-05-02T06:07:04.128Z,98181.98
2019-05-02T06:09:34.842Z,98189.73
2019-05-02T06:12:05.667Z,98189.13
2019-05-02T06:14:37.539Z,98192.72
2019-05-02T06:17:08.177Z,98192.53
2019-05-02T06:19:38.905Z,98190.20
2019-05-02T06:22:09.555Z,98192.90
2019-05-02T06:24:46.181Z,98189.50
2019-05-02T06:27:14.943Z,98195.39
2019-05-02T06:29:51.115Z,98186.83
2019-05-02T06:32:20.647Z,98198.27
2019-05-02T06:34:51.410Z,98202.86
2019-05-02T06:37:22.048Z,98203.83
2019-05-02T06:39:52.641Z,98203.20
2019-05-02T06:42:23.185Z,98206.19
2019-05-02T06:44:59.761Z,98207.41
2019-05-02T06:47:28.693Z,98210.66
2019-05-02T06:50:02.721Z,98217.58
2019-05-02T06:52:32.698Z,98211.94
2019-05-02T06:55:05.173Z,98210.76
2019-05-02T06:57:35.861Z,98214.61
2019-05-02T07:00:09.973Z,98224.55
2019-05-02T07:02:43.822Z,98217.29
2019-05-02T07:05:15.140Z,98221.02
2019-05-02T07:07:46.757Z,98224.30
2019-05-02T07:10:20.186Z,98217.70
2019-05-02T07:12:51.288Z,98218.45
2019-05-02T07:15:41.869Z,98224.23
2019-05-02T07:18:26.066Z,98224.92
2019-05-02T07:20:56.699Z,98229.59
2019-05-02T07:23:28.709Z,98218.89
2019-05-02T07:26:00.358Z,98224.06
2019-05-02T07:28:32.794Z,98232.39
2019-05-02T07:31:06.667Z,98238.23
2019-05-02T07:33:37.543Z,98230.01
2019-05-02T07:36:08.168Z,98235.77
2019-05-02T07:38:40.233Z,98249.33
2019-05-02T07:41:10.858Z,98245.73
2019-05-02T07:43:41.599Z,98246.06
2019-05-02T07:46:16.104Z,98255.59
2019-05-02T07:48:48.700Z,98253.69
2019-05-02T07:51:17.403Z,98264.95
2019-05-02T07:53:49.811Z,98267.08
2019-05-02T07:56:20.533Z,98276.14
2019-05-02T07:58:51.066Z,98278.63
2019-05-02T08:01:23.230Z,98277.91
2019-05-02T08:03:55.511Z,98283.63
2019-05-02T08:06:35.093Z,98281.56
2019-05-02T08:09:01.533Z,98287.02
2019-05-02T08:11:37.091Z,98285.12
2019-05-02T08:14:04.920Z,98293.34
2019-05-02T08:16:35.568Z,98290.72
2019-05-02T08:19:06.909Z,98296.08
2019-05-02T08:21:37.692Z,98290.09
2019-05-02T08:24:09.575Z,98291.42
2019-05-02T08:26:47.977Z,98297.61
2019-05-02T08:29:23.298Z,98302.20
2019-05-02T08:31:51.076Z,98290.31
2019-05-02T08:34:33.918Z,98289.88
2019-05-02T08:37:04.980Z,98285.54
2019-05-02T08:39:35.991Z,98285.63
2019-05-02T08:42:10.436Z,98281.42
2019-05-02T08:44:50.623Z,98284.30
2019-05-02T08:47:19.048Z,98286.05
2019-05-02T08:49:49.299Z,98285.33
2019-05-02T08:52:18.002Z,98288.02
2019-05-02T08:54:48.636Z,98297.93
2019-05-02T08:57:19.208Z,98288.25
2019-05-02T08:59:49.825Z,98293.82
2019-05-02T09:02:21.123Z,98290.67
2019-05-02T09:04:58.587Z,98292.64
2019-05-02T09:07:25.528Z,98302.56
2019-05-02T09:10:00.269Z,98308.29
2019-05-02T09:12:28.506Z,98307.13
2019-05-02T09:14:59.106Z,98308.66
2019-05-02T09:17:36.126Z,98310.78
2019-05-02T09:20:05.104Z,98316.81
2019-05-02T09:22:34.223Z,98312.06
2019-05-02T09:25:08.862Z,98311.26
2019-05-02T09:27:39.492Z,98322.27
2019-05-02T09:30:12.292Z,98325.59
2019-05-02T09:32:45.643Z,98326.95
2019-05-02T09:35:16.247Z,98326.59
2019-05-02T09:37:46.974Z,98322.12
2019-05-02T09:40:17.901Z,98326.97
2019-05-02T09:42:53.275Z,98329.94
2019-05-02T09:45:22.832Z,98326.81
2019-05-02T09:48:03.871Z,98336.59
2019-05-02T09:50:31.211Z,98331.92
2019-05-02T09:52:58.331Z,98328.67
2019-05-02T09:55:28.902Z,98332.30
2019-05-02T09:57:59.647Z,98330.16
2019-05-02T10:00:52.478Z,98329.03
2019-05-02T10:03:23.662Z,98323.50
2019-05-02T10:05:54.476Z,98328.21
2019-05-02T10:08:25.399Z,98328.27
2019-05-02T10:10:56.046Z,98325.97
2019-05-02T10:13:28.654Z,98326.50
2019-05-02T10:15:59.314Z,98324.92
2019-05-02T10:18:32.401Z,98327.53
2019-05-02T10:21:03.117Z,98332.25
2019-05-02T10:23:36.086Z,98335.26
2019-05-02T10:26:06.694Z,98341.03
2019-05-02T10:28:41.765Z,98350.17
2019-05-02T10:31:12.709Z,98347.09
2019-05-02T10:33:43.603Z,98349.10
2019-05-02T10:36:19.776Z,98350.17
2019-05-02T10:38:54.969Z,98351.09
2019-05-02T10:41:22.430Z,98351.36
2019-05-02T10:43:56.658Z,98349.09
2019-05-02T10:46:42.227Z,98344.44
2019-05-02T10:49:14.529Z,98345.34
2019-05-02T10:51:49.489Z,98349.07
2019-05-02T10:54:20.534Z,98347.44
2019-05-02T10:56:51.812Z,98355.92
2019-05-02T10:59:22.667Z,98343.05
2019-05-02T11:01:57.937Z,98347.97
2019-05-02T11:04:29.400Z,98349.89
2019-05-02T11:07:02.709Z,98347.30
2019-05-02T11:09:33.429Z,98344.73
2019-05-02T11:12:07.769Z,98342.42
2019-05-02T11:14:43.106Z,98341.08
2019-05-02T11:17:22.756Z,98345.31
2019-05-02T11:19:55.271Z,98350.02
2019-05-02T11:22:26.007Z,98358.14
2019-05-02T11:24:56.951Z,98357.20
2019-05-02T11:27:27.591Z,98367.81
2019-05-02T11:29:58.605Z,98362.20
2019-05-02T11:32:29.252Z,98370.66
2019-05-02T11:35:00.022Z,98373.44
2019-05-02T11:37:32.718Z,98376.09
2019-05-02T11:40:06.153Z,98386.67
2019-05-02T11:42:35.277Z,98380.72
2019-05-02T11:45:07.183Z,98377.89
2019-05-02T11:47:37.966Z,98374.27
2019-05-02T11:50:11.898Z,98372.27
2019-05-02T11:52:46.153Z,98374.11
2019-05-02T11:55:18.911Z,98379.87
2019-05-02T11:57:52.362Z,98386.67
2019-05-02T12:00:21.924Z,98393.11
2019-05-02T12:03:03.013Z,98389.22
2019-05-02T12:05:35.836Z,98395.38
2019-05-02T12:08:07.791Z,98393.94
2019-05-02T12:10:38.944Z,98394.41
2019-05-02T12:13:11.951Z,98392.91
2019-05-02T12:15:44.193Z,98393.71
2019-05-02T12:18:14.411Z,98391.42
2019-05-02T12:20:46.056Z,98394.00
2019-05-02T12:23:16.721Z,98385.66
2019-05-02T12:25:47.356Z,98380.70
2019-05-02T12:28:18.345Z,98382.50
2019-05-02T12:30:48.998Z,98378.89
2019-05-02T12:33:22.285Z,98385.22
2019-05-02T12:35:52.885Z,98384.01
2019-05-02T12:38:23.519Z,98379.04
2019-05-02T12:40:57.722Z,98380.69
2019-05-02T12:43:27.003Z,98380.52
2019-05-02T12:45:59.688Z,98378.11
2019-05-02T12:48:32.691Z,98372.80
2019-05-02T12:51:02.742Z,98376.30
2019-05-02T12:53:34.464Z,98370.66
2019-05-02T12:56:05.235Z,98365.86
2019-05-02T12:58:35.790Z,98369.86
2019-05-02T13:01:06.460Z,98375.23
2019-05-02T13:03:38.611Z,98374.81
2019-05-02T13:06:09.267Z,98384.74
2019-05-02T13:08:49.164Z,98386.27
2019-05-02T13:11:24.085Z,98385.17
2019-05-02T13:13:54.700Z,98383.59
2019-05-02T13:16:25.402Z,98393.21
2019-05-02T13:18:57.252Z,98400.12
2019-05-02T13:21:41.474Z,98394.47
2019-05-02T13:24:24.577Z,98394.77
2019-05-02T13:26:59.432Z,98393.87
2019-05-02T13:29:27.236Z,98384.48
2019-05-02T13:32:01.560Z,98380.83
2019-05-02T13:34:33.268Z,98388.09
2019-05-02T13:37:04.974Z,98388.89
2019-05-02T13:39:41.851Z,98379.27
2019-05-02T13:42:13.011Z,98381.30
2019-05-02T13:44:52.676Z,98384.94
2019-05-02T13:47:25.460Z,98384.94
2019-05-02T13:50:00.491Z,98390.22
2019-05-02T13:52:28.971Z,98382.68
2019-05-02T13:55:01.631Z,98384.17
2019-05-02T13:57:34.959Z,98397.14
2019-05-02T14:00:08.754Z,98386.59
2019-05-02T14:02:42.747Z,98385.53
2019-05-02T14:05:15.711Z,98382.69
2019-05-02T14:07:55.975Z,98383.80
2019-05-02T14:10:33.675Z,98383.91
2019-05-02T14:13:03.209Z,98384.36
2019-05-02T14:15:42.089Z,98378.86
2019-05-02T14:18:12.817Z,98372.84
2019-05-02T14:20:43.451Z,98377.14
2019-05-02T14:23:14.025Z,98374.27
2019-05-02T14:25:44.830Z,98373.51
2019-05-02T14:28:15.432Z,98364.13
2019-05-02T14:30:46.499Z,98368.30
2019-05-02T14:33:23.202Z,98367.38
2019-05-02T14:35:54.136Z,98371.72
2019-05-02T14:38:24.885Z,98370.24
2019-05-02T14:41:15.152Z,98359.89
2019-05-02T14:43:55.509Z,98363.55
2019-05-02T14:46:35.258Z,98357.22
2019-05-02T14:48:58.827Z,98361.10
2019-05-02T14:51:29.532Z,98358.45
2019-05-02T14:54:03.571Z,98349.56
2019-05-02T14:56:52.182Z,98354.52
2019-05-02T14:59:23.150Z,98354.83
2019-05-02T15:01:57.911Z,98345.78
2019-05-02T15:04:27.720Z,98355.19
2019-05-02T15:06:58.300Z,98336.88
2019-05-02T15:09:29.041Z,98345.82
2019-05-02T15:12:02.424Z,98339.08
2019-05-02T15:14:34.929Z,98343.73
2019-05-02T15:17:06.865Z,98340.59
2019-05-02T15:19:37.621Z,98357.83
2019-05-02T15:22:08.373Z,98354.56
2019-05-02T15:24:38.990Z,98349.45
2019-05-02T15:27:13.611Z,98348.58
2019-05-02T15:29:42.236Z,98348.20
2019-05-02T15:32:32.468Z,98337.66
2019-05-02T15:35:05.190Z,98343.64
2019-05-02T15:37:36.060Z,98337.27
2019-05-02T15:42:42.142Z,98337.63
2019-05-02T15:45:13.277Z,98341.37
2019-05-02T15:47:45.405Z,98346.66
2019-05-02T15:50:21.986Z,98348.89
2019-05-02T15:52:52.604Z,98357.92
2019-05-02T15:55:23.363Z,98357.33
2019-05-02T15:57:54.040Z,98372.23
2019-05-02T16:00:28.791Z,98364.38
2019-05-02T16:03:02.955Z,98363.47
2019-05-02T16:05:32.113Z,98377.23
2019-05-02T16:08:08.692Z,98375.59
2019-05-02T16:10:38.928Z,98379.03
2019-05-02T16:13:13.475Z,98394.38
2019-05-02T16:18:25.244Z,98402.25
2019-05-02T16:21:07.059Z,98399.00
2019-05-02T16:23:35.656Z,98404.22
2019-05-02T16:26:05.943Z,98405.91
2019-05-02T16:28:44.131Z,98406.44
2019-05-02T16:31:17.139Z,98410.77
2019-05-02T16:33:49.775Z,98417.61
2019-05-02T16:36:18.831Z,98417.19
2019-05-02T16:38:52.221Z,98409.43
2019-05-02T16:41:24.738Z,98423.34
2019-05-02T16:43:55.831Z,98427.85
2019-05-02T16:46:27.467Z,98431.25
2019-05-02T16:48:58.175Z,98429.11
2019-05-02T16:51:32.324Z,98432.95
2019-05-02T16:54:05.015Z,98434.72
2019-05-02T16:56:36.938Z,98440.41
2019-05-02T16:59:06.157Z,98447.45
2019-05-02T17:01:37.842Z,98442.98
2019-05-02T17:04:08.527Z,98450.88
2019-05-02T17:06:39.856Z,98455.02
2019-05-02T17:09:21.708Z,98462.86
2019-05-02T17:11:52.426Z,98473.75
2019-05-02T17:14:23.103Z,98470.75
2019-05-02T17:16:55.904Z,98480.00
2019-05-02T17:19:30.621Z,98477.87
2019-05-02T17:21:58.698Z,98477.53
2019-05-02T17:24:29.367Z,98480.02
2019-05-02T17:27:00.108Z,98483.73
2019-05-02T17:29:31.748Z,98491.84
2019-05-02T17:32:02.645Z,98495.53
2019-05-02T17:34:35.319Z,98501.59
2019-05-02T17:37:11.136Z,98508.15
2019-05-02T17:39:42.626Z,98512.33
2019-05-02T17:42:12.442Z,98516.74
2019-05-02T17:44:43.945Z,98517.02
2019-05-02T17:47:14.822Z,98518.31
2019-05-02T17:49:45.506Z,98525.50
2019-05-02T17:52:26.508Z,98530.31
2019-05-02T17:54:57.376Z,98537.31
2019-05-02T17:57:28.548Z,98541.87
2019-05-02T17:59:58.241Z,98542.06
2019-05-02T18:02:29.203Z,98547.38
2019-05-02T18:05:02.762Z,98552.41
2019-05-02T18:07:36.051Z,98543.25
2019-05-02T18:10:14.468Z,98547.95
2019-05-02T18:12:40.020Z,98545.59
2019-05-02T18:15:11.997Z,98555.94
2019-05-02T18:17:42.933Z,98562.13
2019-05-02T18:20:13.670Z,98556.14
2019-05-02T18:22:51.789Z,98563.31
2019-05-02T18:25:25.281Z,98562.84
2019-05-02T18:27:54.533Z,98568.51
2019-05-02T18:30:26.964Z,98562.77
2019-05-02T18:33:02.514Z,98565.97
2019-05-02T18:35:30.091Z,98569.44
2019-05-02T18:38:02.544Z,98576.44
2019-05-02T18:40:33.094Z,98569.23
2019-05-02T18:43:05.358Z,98567.30
2019-05-02T18:45:36.344Z,98584.44
2019-05-02T18:48:07.139Z,98588.24
2019-05-02T18:50:47.010Z,98582.70
2019-05-02T18:53:13.878Z,98592.95
2019-05-02T18:55:44.641Z,98589.98
2019-05-02T18:58:15.304Z,98590.48
2019-05-02T19:00:46.065Z,98588.58
2019-05-02T19:03:17.454Z,98598.64
2019-05-02T19:05:51.477Z,98602.47
2019-05-02T19:08:30.544Z,98601.53
2019-05-02T19:11:04.757Z,98596.13
2019-05-02T19:13:25.750Z,98591.89
2019-05-02T19:15:56.679Z,98581.41
2019-05-02T19:18:27.354Z,98586.27
2019-05-02T19:20:59.959Z,98583.24
2019-05-02T19:23:32.027Z,98583.87
2019-05-02T19:26:09.819Z,98587.64
2019-05-02T19:28:40.545Z,98586.16
2019-05-02T19:31:11.275Z,98575.96
2019-05-02T19:33:42.712Z,98586.56
2019-05-02T19:36:24.408Z,98592.09
2019-05-02T19:38:49.190Z,98588.59
2019-05-02T19:41:19.920Z,98586.83
2019-05-02T19:43:51.449Z,98586.59
2019-05-02T19:46:24.581Z,98590.37
2019-05-02T19:48:55.605Z,98588.92
2019-05-02T19:51:28.150Z,98592.10
2019-05-02T19:54:01.745Z,98600.09
2019-05-02T19:56:41.817Z,98614.66
2019-05-02T19:59:04.957Z,98622.36
2019-05-02T20:01:35.787Z,98623.95
2019-05-02T20:04:09.396Z,98621.13
2019-05-02T20:06:39.458Z,98618.69
2019-05-02T20:09:10.840Z,98613.30
2019-05-02T20:11:42.530Z,98622.27
2019-05-02T20:14:13.406Z,98623.67
2019-05-02T20:16:49.042Z,98627.59
2019-05-02T20:19:23.151Z,98629.50
2019-05-02T20:21:57.183Z,98630.33
2019-05-02T20:24:27.820Z,98622.81
2019-05-02T20:26:59.381Z,98622.25
2019-05-02T20:29:32.066Z,98628.84
2019-05-02T20:32:02.481Z,98622.87
2019-05-02T20:34:33.234Z,98619.78
2019-05-02T20:37:04.118Z,98626.06
2019-05-02T20:39:34.703Z,98615.47
2019-05-02T20:42:05.324Z,98612.61
2019-05-02T20:44:36.016Z,98620.78
2019-05-02T20:47:07.465Z,98613.34
2019-05-02T20:49:37.921Z,98625.12
2019-05-02T20:52:08.533Z,98616.87
2019-05-02T20:54:40.290Z,98623.83
2019-05-02T20:57:12.015Z,98634.24
2019-05-02T20:59:42.623Z,98624.97
2019-05-02T21:02:14.724Z,98619.91
2019-05-02T21:04:45.378Z,98636.26
2019-05-02T21:07:23.914Z,98634.66
2019-05-02T21:09:59.175Z,98632.08
2019-05-02T21:12:29.838Z,98633.78
2019-05-02T21:15:01.695Z,98637.40
2019-05-02T21:17:32.781Z,98628.20
2019-05-02T21:20:04.440Z,98624.66
2019-05-02T21:22:36.232Z,98624.19
2019-05-02T21:25:07.827Z,98622.30
2019-05-02T21:27:38.313Z,98623.25
2019-05-02T21:30:12.448Z,98623.70
2019-05-02T21:32:42.986Z,98619.06
2019-05-02T21:35:14.689Z,98618.20
2019-05-02T21:37:45.387Z,98621.73
2019-05-02T21:40:15.958Z,98614.31
2019-05-02T21:42:48.032Z,98613.67
2019-05-02T21:45:18.661Z,98618.23
2019-05-02T21:47:49.292Z,98616.52
2019-05-02T21:50:39.851Z,98621.25
2019-05-02T21:53:28.422Z,98615.33
2019-05-02T21:56:03.923Z,98620.71
2019-05-02T21:58:34.386Z,98611.09
2019-05-02T22:01:14.687Z,98621.16
2019-05-02T22:03:45.410Z,98624.91
2019-05-02T22:06:16.098Z,98626.03
2019-05-02T22:08:47.820Z,98633.80
2019-05-02T22:11:18.387Z,98640.89
2019-05-02T22:13:48.939Z,98647.77
2019-05-02T22:16:19.556Z,98659.26
2019-05-02T22:18:52.092Z,98659.90
2019-05-02T22:21:22.836Z,98657.28
2019-05-02T22:23:53.567Z,98643.91
2019-05-02T22:26:24.066Z,98637.09
2019-05-02T22:28:56.157Z,98637.41
2019-05-02T22:31:26.687Z,98630.52
2019-05-02T22:33:57.343Z,98629.03
2019-05-02T22:36:27.933Z,98627.06
2019-05-02T22:39:04.226Z,98623.57
2019-05-02T22:41:34.825Z,98617.87
2019-05-02T22:44:05.777Z,98617.37
2019-05-02T22:46:43.667Z,98618.38
2019-05-02T22:49:15.298Z,98622.36
2019-05-02T22:51:45.932Z,98624.31
2019-05-02T22:54:26.963Z,98622.81
2019-05-02T22:56:49.007Z,98629.64
2019-05-02T22:59:19.521Z,98632.61
2019-05-02T23:01:50.162Z,98641.98
2019-05-02T23:04:23.270Z,98659.72
2019-05-02T23:06:53.304Z,98660.55
2019-05-02T23:09:23.934Z,98657.64
2019-05-02T23:11:54.614Z,98656.51
2019-05-02T23:14:25.174Z,98653.02
2019-05-02T23:16:56.839Z,98652.04
2019-05-02T23:19:28.689Z,98648.10
2019-05-02T23:21:59.231Z,98642.52
2019-05-02T23:24:47.963Z,98641.19
2019-05-02T23:27:22.275Z,98641.97
2019-05-02T23:29:52.760Z,98633.08
2019-05-02T23:32:23.832Z,98634.08
2019-05-02T23:34:54.499Z,98625.48
2019-05-02T23:37:25.117Z,98629.80
2019-05-02T23:39:55.634Z,98625.73
2019-05-02T23:42:26.282Z,98627.56
2019-05-02T23:44:57.162Z,98615.77
2019-05-02T23:47:27.681Z,98610.90
2019-05-02T23:49:58.226Z,98600.48
2019-05-02T23:52:28.869Z,98598.73
2019-05-02T23:54:59.469Z,98595.69
2019-05-02T23:57:32.002Z,98600.81
